sensor_id;sensor_type;location;lat;lon;timestamp;temperature;humidity
17495;DHT22;8864;51.970;4.614;2022-11-13T00:00:38;17.50;78.10
17495;DHT22;8864;51.970;4.614;2022-11-13T00:03:05;17.50;78.00
17495;DHT22;8864;51.970;4.614;2022-11-13T00:05:32;17.50;78.00
17495;DHT22;8864;51.970;4.614;2022-11-13T00:07:59;17.50;77.90
17495;DHT22;8864;51.970;4.614;2022-11-13T00:10:25;17.50;77.90
17495;DHT22;8864;51.970;4.614;2022-11-13T00:12:52;17.50;77.90
17495;DHT22;8864;51.970;4.614;2022-11-13T00:15:20;17.50;77.80
17495;DHT22;8864;51.970;4.614;2022-11-13T00:17:48;17.50;77.70
17495;DHT22;8864;51.970;4.614;2022-11-13T00:20:15;17.50;77.70
17495;DHT22;8864;51.970;4.614;2022-11-13T00:22:42;17.50;77.70
17495;DHT22;8864;51.970;4.614;2022-11-13T00:25:09;17.50;77.60
17495;DHT22;8864;51.970;4.614;2022-11-13T00:27:36;17.50;77.60
17495;DHT22;8864;51.970;4.614;2022-11-13T00:30:03;17.50;77.60
17495;DHT22;8864;51.970;4.614;2022-11-13T00:32:30;17.50;77.60
17495;DHT22;8864;51.970;4.614;2022-11-13T00:34:58;17.50;77.60
17495;DHT22;8864;51.970;4.614;2022-11-13T00:37:25;17.50;77.50
17495;DHT22;8864;51.970;4.614;2022-11-13T00:39:52;17.50;77.50
17495;DHT22;8864;51.970;4.614;2022-11-13T00:42:18;17.50;77.40
17495;DHT22;8864;51.970;4.614;2022-11-13T00:44:45;17.50;77.40
17495;DHT22;8864;51.970;4.614;2022-11-13T00:47:12;17.50;77.40
17495;DHT22;8864;51.970;4.614;2022-11-13T00:49:39;17.50;77.30
17495;DHT22;8864;51.970;4.614;2022-11-13T00:52:07;17.50;77.40
17495;DHT22;8864;51.970;4.614;2022-11-13T00:54:34;17.50;77.40
17495;DHT22;8864;51.970;4.614;2022-11-13T00:57:00;17.50;77.30
17495;DHT22;8864;51.970;4.614;2022-11-13T00:59:27;17.50;77.30
17495;DHT22;8864;51.970;4.614;2022-11-13T01:01:54;17.50;77.30
17495;DHT22;8864;51.970;4.614;2022-11-13T01:04:20;17.40;77.20
17495;DHT22;8864;51.970;4.614;2022-11-13T01:06:47;17.50;77.30
17495;DHT22;8864;51.970;4.614;2022-11-13T01:09:15;17.50;77.30
17495;DHT22;8864;51.970;4.614;2022-11-13T01:11:42;17.50;77.30
17495;DHT22;8864;51.970;4.614;2022-11-13T01:14:09;17.50;77.30
17495;DHT22;8864;51.970;4.614;2022-11-13T01:16:36;17.50;77.20
17495;DHT22;8864;51.970;4.614;2022-11-13T01:19:02;17.50;77.20
17495;DHT22;8864;51.970;4.614;2022-11-13T01:21:29;17.50;77.20
17495;DHT22;8864;51.970;4.614;2022-11-13T01:23:56;17.50;77.20
17495;DHT22;8864;51.970;4.614;2022-11-13T01:26:26;17.40;77.10
17495;DHT22;8864;51.970;4.614;2022-11-13T01:28:54;17.40;77.10
17495;DHT22;8864;51.970;4.614;2022-11-13T01:31:27;17.40;77.10
17495;DHT22;8864;51.970;4.614;2022-11-13T01:33:56;17.40;77.00
17495;DHT22;8864;51.970;4.614;2022-11-13T01:36:25;17.40;77.00
17495;DHT22;8864;51.970;4.614;2022-11-13T01:38:52;17.40;77.00
17495;DHT22;8864;51.970;4.614;2022-11-13T01:41:22;17.40;77.00
17495;DHT22;8864;51.970;4.614;2022-11-13T01:43:51;17.40;77.10
17495;DHT22;8864;51.970;4.614;2022-11-13T01:46:24;17.40;77.10
17495;DHT22;8864;51.970;4.614;2022-11-13T01:48:55;17.40;77.00
17495;DHT22;8864;51.970;4.614;2022-11-13T01:51:28;17.40;77.00
17495;DHT22;8864;51.970;4.614;2022-11-13T01:53:56;17.40;77.00
17495;DHT22;8864;51.970;4.614;2022-11-13T01:56:24;17.40;77.00
17495;DHT22;8864;51.970;4.614;2022-11-13T01:58:57;17.40;76.90
17495;DHT22;8864;51.970;4.614;2022-11-13T02:01:27;17.40;76.90
17495;DHT22;8864;51.970;4.614;2022-11-13T02:03:54;17.40;76.80
17495;DHT22;8864;51.970;4.614;2022-11-13T02:06:20;17.50;77.00
17495;DHT22;8864;51.970;4.614;2022-11-13T02:08:48;17.40;76.80
17495;DHT22;8864;51.970;4.614;2022-11-13T02:11:16;17.40;76.80
17495;DHT22;8864;51.970;4.614;2022-11-13T02:13:43;17.40;76.80
17495;DHT22;8864;51.970;4.614;2022-11-13T02:16:13;17.40;76.80
17495;DHT22;8864;51.970;4.614;2022-11-13T02:18:40;17.40;76.60
17495;DHT22;8864;51.970;4.614;2022-11-13T02:21:25;17.40;76.60
17495;DHT22;8864;51.970;4.614;2022-11-13T02:23:59;17.40;76.50
17495;DHT22;8864;51.970;4.614;2022-11-13T02:26:28;17.40;76.50
17495;DHT22;8864;51.970;4.614;2022-11-13T02:28:56;17.40;76.50
17495;DHT22;8864;51.970;4.614;2022-11-13T02:31:23;17.40;76.50
17495;DHT22;8864;51.970;4.614;2022-11-13T02:33:49;17.40;76.50
17495;DHT22;8864;51.970;4.614;2022-11-13T02:36:17;17.40;76.40
17495;DHT22;8864;51.970;4.614;2022-11-13T02:38:45;17.40;76.30
17495;DHT22;8864;51.970;4.614;2022-11-13T02:41:12;17.40;76.30
17495;DHT22;8864;51.970;4.614;2022-11-13T02:43:41;17.40;76.30
17495;DHT22;8864;51.970;4.614;2022-11-13T02:46:07;17.40;76.20
17495;DHT22;8864;51.970;4.614;2022-11-13T02:48:34;17.30;76.10
17495;DHT22;8864;51.970;4.614;2022-11-13T02:51:01;17.30;76.00
17495;DHT22;8864;51.970;4.614;2022-11-13T02:53:28;17.40;76.20
17495;DHT22;8864;51.970;4.614;2022-11-13T02:55:55;17.30;76.20
17495;DHT22;8864;51.970;4.614;2022-11-13T02:58:21;17.30;76.10
17495;DHT22;8864;51.970;4.614;2022-11-13T03:00:49;17.40;76.20
17495;DHT22;8864;51.970;4.614;2022-11-13T03:03:16;17.40;76.20
17495;DHT22;8864;51.970;4.614;2022-11-13T03:05:47;17.30;76.00
17495;DHT22;8864;51.970;4.614;2022-11-13T03:08:14;17.30;75.90
17495;DHT22;8864;51.970;4.614;2022-11-13T03:10:41;17.40;75.90
17495;DHT22;8864;51.970;4.614;2022-11-13T03:13:08;17.30;75.80
17495;DHT22;8864;51.970;4.614;2022-11-13T03:15:34;17.40;75.80
17495;DHT22;8864;51.970;4.614;2022-11-13T03:18:03;17.30;75.60
17495;DHT22;8864;51.970;4.614;2022-11-13T03:20:30;17.40;75.60
17495;DHT22;8864;51.970;4.614;2022-11-13T03:22:57;17.30;75.60
17495;DHT22;8864;51.970;4.614;2022-11-13T03:25:24;17.30;75.40
17495;DHT22;8864;51.970;4.614;2022-11-13T03:27:50;17.30;75.40
17495;DHT22;8864;51.970;4.614;2022-11-13T03:30:17;17.30;75.40
17495;DHT22;8864;51.970;4.614;2022-11-13T03:32:44;17.30;75.40
17495;DHT22;8864;51.970;4.614;2022-11-13T03:35:12;17.30;75.30
17495;DHT22;8864;51.970;4.614;2022-11-13T03:37:39;17.30;75.30
17495;DHT22;8864;51.970;4.614;2022-11-13T03:40:07;17.30;75.20
17495;DHT22;8864;51.970;4.614;2022-11-13T03:42:34;17.30;75.30
17495;DHT22;8864;51.970;4.614;2022-11-13T03:45:01;17.30;75.20
17495;DHT22;8864;51.970;4.614;2022-11-13T03:47:28;17.30;75.10
17495;DHT22;8864;51.970;4.614;2022-11-13T03:49:54;17.30;75.10
17495;DHT22;8864;51.970;4.614;2022-11-13T03:52:23;17.30;75.10
17495;DHT22;8864;51.970;4.614;2022-11-13T03:54:49;17.30;75.10
17495;DHT22;8864;51.970;4.614;2022-11-13T03:57:16;17.30;75.00
17495;DHT22;8864;51.970;4.614;2022-11-13T03:59:43;17.30;75.00
17495;DHT22;8864;51.970;4.614;2022-11-13T04:02:10;17.30;74.90
17495;DHT22;8864;51.970;4.614;2022-11-13T04:04:37;17.30;74.90
17495;DHT22;8864;51.970;4.614;2022-11-13T04:07:03;17.30;74.80
17495;DHT22;8864;51.970;4.614;2022-11-13T04:09:31;17.30;74.80
17495;DHT22;8864;51.970;4.614;2022-11-13T04:11:58;17.30;74.80
17495;DHT22;8864;51.970;4.614;2022-11-13T04:14:25;17.30;74.80
17495;DHT22;8864;51.970;4.614;2022-11-13T04:16:52;17.30;74.80
17495;DHT22;8864;51.970;4.614;2022-11-13T04:19:18;17.30;74.80
17495;DHT22;8864;51.970;4.614;2022-11-13T04:21:45;17.30;74.60
17495;DHT22;8864;51.970;4.614;2022-11-13T04:24:12;17.30;74.60
17495;DHT22;8864;51.970;4.614;2022-11-13T04:26:40;17.20;74.50
17495;DHT22;8864;51.970;4.614;2022-11-13T04:29:07;17.20;74.50
17495;DHT22;8864;51.970;4.614;2022-11-13T04:31:34;17.20;74.40
17495;DHT22;8864;51.970;4.614;2022-11-13T04:34:00;17.20;74.40
17495;DHT22;8864;51.970;4.614;2022-11-13T04:36:27;17.20;74.30
17495;DHT22;8864;51.970;4.614;2022-11-13T04:38:54;17.20;74.30
17495;DHT22;8864;51.970;4.614;2022-11-13T04:41:20;17.20;74.30
17495;DHT22;8864;51.970;4.614;2022-11-13T04:44:06;17.30;74.30
17495;DHT22;8864;51.970;4.614;2022-11-13T04:46:33;17.20;74.20
17495;DHT22;8864;51.970;4.614;2022-11-13T04:48:59;17.20;74.20
17495;DHT22;8864;51.970;4.614;2022-11-13T04:51:26;17.20;74.10
17495;DHT22;8864;51.970;4.614;2022-11-13T04:53:53;17.20;74.00
17495;DHT22;8864;51.970;4.614;2022-11-13T04:56:20;17.20;74.00
17495;DHT22;8864;51.970;4.614;2022-11-13T04:58:47;17.20;74.00
17495;DHT22;8864;51.970;4.614;2022-11-13T05:01:15;17.20;73.90
17495;DHT22;8864;51.970;4.614;2022-11-13T05:03:42;17.20;73.90
17495;DHT22;8864;51.970;4.614;2022-11-13T05:06:09;17.20;73.90
17495;DHT22;8864;51.970;4.614;2022-11-13T05:08:36;17.20;73.80
17495;DHT22;8864;51.970;4.614;2022-11-13T05:11:04;17.20;73.70
17495;DHT22;8864;51.970;4.614;2022-11-13T05:13:32;17.20;73.70
17495;DHT22;8864;51.970;4.614;2022-11-13T05:16:00;17.20;73.70
17495;DHT22;8864;51.970;4.614;2022-11-13T05:18:28;17.20;73.60
17495;DHT22;8864;51.970;4.614;2022-11-13T05:20:56;17.20;73.60
17495;DHT22;8864;51.970;4.614;2022-11-13T05:23:23;17.20;73.50
17495;DHT22;8864;51.970;4.614;2022-11-13T05:25:50;17.20;73.40
17495;DHT22;8864;51.970;4.614;2022-11-13T05:28:16;17.20;73.40
17495;DHT22;8864;51.970;4.614;2022-11-13T05:30:43;17.20;73.40
17495;DHT22;8864;51.970;4.614;2022-11-13T05:33:10;17.20;73.30
17495;DHT22;8864;51.970;4.614;2022-11-13T05:35:38;17.20;73.30
17495;DHT22;8864;51.970;4.614;2022-11-13T05:38:05;17.20;73.20
17495;DHT22;8864;51.970;4.614;2022-11-13T05:40:32;17.20;73.20
17495;DHT22;8864;51.970;4.614;2022-11-13T05:42:59;17.20;73.10
17495;DHT22;8864;51.970;4.614;2022-11-13T05:45:25;17.10;73.00
17495;DHT22;8864;51.970;4.614;2022-11-13T05:47:52;17.10;73.00
17495;DHT22;8864;51.970;4.614;2022-11-13T05:50:19;17.10;73.00
17495;DHT22;8864;51.970;4.614;2022-11-13T05:52:48;17.10;72.90
17495;DHT22;8864;51.970;4.614;2022-11-13T05:55:15;17.20;73.00
17495;DHT22;8864;51.970;4.614;2022-11-13T05:57:41;17.10;72.80
17495;DHT22;8864;51.970;4.614;2022-11-13T06:00:09;17.10;72.80
17495;DHT22;8864;51.970;4.614;2022-11-13T06:02:36;17.10;72.70
17495;DHT22;8864;51.970;4.614;2022-11-13T06:05:03;17.10;72.60
17495;DHT22;8864;51.970;4.614;2022-11-13T06:07:30;17.10;72.60
17495;DHT22;8864;51.970;4.614;2022-11-13T06:09:58;17.10;72.60
17495;DHT22;8864;51.970;4.614;2022-11-13T06:12:25;17.10;72.60
17495;DHT22;8864;51.970;4.614;2022-11-13T06:14:51;17.10;72.60
17495;DHT22;8864;51.970;4.614;2022-11-13T06:17:18;17.10;72.60
17495;DHT22;8864;51.970;4.614;2022-11-13T06:19:45;17.10;72.60
17495;DHT22;8864;51.970;4.614;2022-11-13T06:22:12;17.20;72.70
17495;DHT22;8864;51.970;4.614;2022-11-13T06:24:39;17.10;72.70
17495;DHT22;8864;51.970;4.614;2022-11-13T06:27:07;17.10;72.70
17495;DHT22;8864;51.970;4.614;2022-11-13T06:29:34;17.10;72.80
17495;DHT22;8864;51.970;4.614;2022-11-13T06:32:01;17.10;72.80
17495;DHT22;8864;51.970;4.614;2022-11-13T06:34:28;17.10;72.80
17495;DHT22;8864;51.970;4.614;2022-11-13T06:36:54;17.10;73.00
17495;DHT22;8864;51.970;4.614;2022-11-13T06:39:21;17.10;72.90
17495;DHT22;8864;51.970;4.614;2022-11-13T06:41:48;17.10;72.80
17495;DHT22;8864;51.970;4.614;2022-11-13T06:44:16;17.10;72.70
17495;DHT22;8864;51.970;4.614;2022-11-13T06:46:43;17.10;72.60
17495;DHT22;8864;51.970;4.614;2022-11-13T06:49:09;17.10;72.50
17495;DHT22;8864;51.970;4.614;2022-11-13T06:51:36;17.10;72.40
17495;DHT22;8864;51.970;4.614;2022-11-13T06:54:04;17.10;72.30
17495;DHT22;8864;51.970;4.614;2022-11-13T06:56:31;17.10;72.20
17495;DHT22;8864;51.970;4.614;2022-11-13T06:58:57;17.10;72.00
17495;DHT22;8864;51.970;4.614;2022-11-13T07:01:26;17.10;72.00
17495;DHT22;8864;51.970;4.614;2022-11-13T07:03:53;17.00;71.90
17495;DHT22;8864;51.970;4.614;2022-11-13T07:06:22;17.10;72.70
17495;DHT22;8864;51.970;4.614;2022-11-13T07:08:49;17.10;71.90
17495;DHT22;8864;51.970;4.614;2022-11-13T07:11:16;17.10;71.90
17495;DHT22;8864;51.970;4.614;2022-11-13T07:13:44;17.00;71.70
17495;DHT22;8864;51.970;4.614;2022-11-13T07:16:12;17.10;71.70
17495;DHT22;8864;51.970;4.614;2022-11-13T07:18:40;17.10;71.60
17495;DHT22;8864;51.970;4.614;2022-11-13T07:21:10;17.00;71.50
17495;DHT22;8864;51.970;4.614;2022-11-13T07:23:37;17.10;71.60
17495;DHT22;8864;51.970;4.614;2022-11-13T07:26:08;17.00;71.50
17495;DHT22;8864;51.970;4.614;2022-11-13T07:28:35;17.00;71.50
17495;DHT22;8864;51.970;4.614;2022-11-13T07:31:01;17.00;71.40
17495;DHT22;8864;51.970;4.614;2022-11-13T07:33:28;17.10;71.40
17495;DHT22;8864;51.970;4.614;2022-11-13T07:35:57;17.10;71.40
17495;DHT22;8864;51.970;4.614;2022-11-13T07:38:24;17.00;71.40
17495;DHT22;8864;51.970;4.614;2022-11-13T07:40:51;17.10;72.20
17495;DHT22;8864;51.970;4.614;2022-11-13T07:43:17;17.10;71.30
17495;DHT22;8864;51.970;4.614;2022-11-13T07:45:44;17.00;71.30
17495;DHT22;8864;51.970;4.614;2022-11-13T07:48:11;17.10;71.30
17495;DHT22;8864;51.970;4.614;2022-11-13T07:50:38;17.10;71.40
17495;DHT22;8864;51.970;4.614;2022-11-13T07:53:07;17.10;71.40
17495;DHT22;8864;51.970;4.614;2022-11-13T07:55:34;17.10;71.20
17495;DHT22;8864;51.970;4.614;2022-11-13T07:58:03;17.10;71.30
17495;DHT22;8864;51.970;4.614;2022-11-13T08:00:31;17.10;71.20
17495;DHT22;8864;51.970;4.614;2022-11-13T08:03:03;17.10;71.30
17495;DHT22;8864;51.970;4.614;2022-11-13T08:05:30;17.10;71.20
17495;DHT22;8864;51.970;4.614;2022-11-13T08:07:58;17.10;71.10
17495;DHT22;8864;51.970;4.614;2022-11-13T08:10:26;17.10;71.10
17495;DHT22;8864;51.970;4.614;2022-11-13T08:12:58;17.10;71.00
17495;DHT22;8864;51.970;4.614;2022-11-13T08:15:25;17.10;71.10
17495;DHT22;8864;51.970;4.614;2022-11-13T08:17:53;17.10;71.40
17495;DHT22;8864;51.970;4.614;2022-11-13T08:20:20;17.10;71.60
17495;DHT22;8864;51.970;4.614;2022-11-13T08:22:47;17.10;71.60
17495;DHT22;8864;51.970;4.614;2022-11-13T08:25:14;17.10;71.60
17495;DHT22;8864;51.970;4.614;2022-11-13T08:27:42;17.20;72.60
17495;DHT22;8864;51.970;4.614;2022-11-13T08:30:11;17.20;73.90
17495;DHT22;8864;51.970;4.614;2022-11-13T08:32:38;17.20;73.80
17495;DHT22;8864;51.970;4.614;2022-11-13T08:35:05;17.20;73.60
17495;DHT22;8864;51.970;4.614;2022-11-13T08:37:32;17.20;73.20
17495;DHT22;8864;51.970;4.614;2022-11-13T08:39:59;17.20;73.00
17495;DHT22;8864;51.970;4.614;2022-11-13T08:42:25;17.20;73.30
17495;DHT22;8864;51.970;4.614;2022-11-13T08:44:54;17.20;73.10
17495;DHT22;8864;51.970;4.614;2022-11-13T08:47:20;17.20;73.20
17495;DHT22;8864;51.970;4.614;2022-11-13T08:49:47;17.30;73.40
17495;DHT22;8864;51.970;4.614;2022-11-13T08:52:14;17.30;73.30
17495;DHT22;8864;51.970;4.614;2022-11-13T08:54:41;17.30;73.30
17495;DHT22;8864;51.970;4.614;2022-11-13T08:57:08;17.30;73.10
17495;DHT22;8864;51.970;4.614;2022-11-13T08:59:35;17.30;73.30
17495;DHT22;8864;51.970;4.614;2022-11-13T09:02:03;17.40;74.20
17495;DHT22;8864;51.970;4.614;2022-11-13T09:04:30;17.30;73.40
17495;DHT22;8864;51.970;4.614;2022-11-13T09:06:57;17.30;73.00
17495;DHT22;8864;51.970;4.614;2022-11-13T09:09:23;17.30;73.70
17495;DHT22;8864;51.970;4.614;2022-11-13T09:11:50;17.30;75.20
17495;DHT22;8864;51.970;4.614;2022-11-13T09:14:17;17.30;75.60
17495;DHT22;8864;51.970;4.614;2022-11-13T09:16:44;17.40;75.20
17495;DHT22;8864;51.970;4.614;2022-11-13T09:19:13;17.40;74.60
17495;DHT22;8864;51.970;4.614;2022-11-13T09:21:40;17.30;74.10
17495;DHT22;8864;51.970;4.614;2022-11-13T09:24:07;17.30;73.70
17495;DHT22;8864;51.970;4.614;2022-11-13T09:26:34;17.40;73.60
17495;DHT22;8864;51.970;4.614;2022-11-13T09:29:01;17.30;73.20
17495;DHT22;8864;51.970;4.614;2022-11-13T09:31:28;17.30;73.00
17495;DHT22;8864;51.970;4.614;2022-11-13T09:33:55;17.30;72.90
17495;DHT22;8864;51.970;4.614;2022-11-13T09:36:23;17.40;72.80
17495;DHT22;8864;51.970;4.614;2022-11-13T09:38:49;17.40;72.50
17495;DHT22;8864;51.970;4.614;2022-11-13T09:41:19;17.40;72.50
17495;DHT22;8864;51.970;4.614;2022-11-13T09:43:49;17.40;72.30
17495;DHT22;8864;51.970;4.614;2022-11-13T09:46:20;17.40;72.10
17495;DHT22;8864;51.970;4.614;2022-11-13T09:48:54;17.40;72.10
17495;DHT22;8864;51.970;4.614;2022-11-13T09:51:26;17.40;72.00
17495;DHT22;8864;51.970;4.614;2022-11-13T09:53:53;17.40;72.30
17495;DHT22;8864;51.970;4.614;2022-11-13T09:56:30;17.40;72.50
17495;DHT22;8864;51.970;4.614;2022-11-13T09:59:13;17.40;72.50
17495;DHT22;8864;51.970;4.614;2022-11-13T10:01:48;17.40;72.60
17495;DHT22;8864;51.970;4.614;2022-11-13T10:04:23;17.40;73.70
17495;DHT22;8864;51.970;4.614;2022-11-13T10:07:04;17.50;73.00
17495;DHT22;8864;51.970;4.614;2022-11-13T10:09:37;17.50;73.20
17495;DHT22;8864;51.970;4.614;2022-11-13T10:12:08;17.50;73.30
17495;DHT22;8864;51.970;4.614;2022-11-13T10:14:40;17.50;73.40
17495;DHT22;8864;51.970;4.614;2022-11-13T10:17:15;17.50;73.40
17495;DHT22;8864;51.970;4.614;2022-11-13T10:19:52;17.50;73.20
17495;DHT22;8864;51.970;4.614;2022-11-13T10:22:26;17.50;73.00
17495;DHT22;8864;51.970;4.614;2022-11-13T10:24:59;17.50;72.80
17495;DHT22;8864;51.970;4.614;2022-11-13T10:27:27;17.50;73.40
17495;DHT22;8864;51.970;4.614;2022-11-13T10:29:54;17.50;72.10
17495;DHT22;8864;51.970;4.614;2022-11-13T10:32:23;17.50;72.20
17495;DHT22;8864;51.970;4.614;2022-11-13T10:34:55;17.50;72.50
17495;DHT22;8864;51.970;4.614;2022-11-13T10:37:40;17.50;72.10
17495;DHT22;8864;51.970;4.614;2022-11-13T10:40:10;17.50;72.00
17495;DHT22;8864;51.970;4.614;2022-11-13T10:42:39;17.50;72.00
17495;DHT22;8864;51.970;4.614;2022-11-13T10:45:14;17.50;72.00
17495;DHT22;8864;51.970;4.614;2022-11-13T10:47:46;17.50;72.00
17495;DHT22;8864;51.970;4.614;2022-11-13T10:50:19;17.50;71.90
17495;DHT22;8864;51.970;4.614;2022-11-13T10:52:48;17.50;71.40
17495;DHT22;8864;51.970;4.614;2022-11-13T10:55:21;17.50;71.40
17495;DHT22;8864;51.970;4.614;2022-11-13T10:57:57;17.60;72.00
17495;DHT22;8864;51.970;4.614;2022-11-13T11:00:29;17.60;71.70
17495;DHT22;8864;51.970;4.614;2022-11-13T11:02:56;17.60;72.00
17495;DHT22;8864;51.970;4.614;2022-11-13T11:05:24;17.60;72.00
17495;DHT22;8864;51.970;4.614;2022-11-13T11:07:53;17.60;71.60
17495;DHT22;8864;51.970;4.614;2022-11-13T11:10:29;17.60;72.00
17495;DHT22;8864;51.970;4.614;2022-11-13T11:13:00;17.60;72.20
17495;DHT22;8864;51.970;4.614;2022-11-13T11:15:32;17.60;72.10
17495;DHT22;8864;51.970;4.614;2022-11-13T11:18:03;17.60;72.10
17495;DHT22;8864;51.970;4.614;2022-11-13T11:20:39;17.60;72.10
17495;DHT22;8864;51.970;4.614;2022-11-13T11:23:17;17.60;72.20
17495;DHT22;8864;51.970;4.614;2022-11-13T11:25:50;17.60;72.20
17495;DHT22;8864;51.970;4.614;2022-11-13T11:28:27;17.60;72.20
17495;DHT22;8864;51.970;4.614;2022-11-13T11:31:00;17.60;72.30
17495;DHT22;8864;51.970;4.614;2022-11-13T11:33:33;17.50;72.20
17495;DHT22;8864;51.970;4.614;2022-11-13T11:36:07;17.50;72.30
17495;DHT22;8864;51.970;4.614;2022-11-13T11:38:46;17.50;72.30
17495;DHT22;8864;51.970;4.614;2022-11-13T11:41:15;17.50;72.30
17495;DHT22;8864;51.970;4.614;2022-11-13T11:43:46;17.50;72.30
17495;DHT22;8864;51.970;4.614;2022-11-13T11:46:16;17.50;72.40
17495;DHT22;8864;51.970;4.614;2022-11-13T11:48:45;17.50;72.40
17495;DHT22;8864;51.970;4.614;2022-11-13T11:51:20;17.50;72.40
17495;DHT22;8864;51.970;4.614;2022-11-13T11:53:58;17.50;72.50
17495;DHT22;8864;51.970;4.614;2022-11-13T11:56:33;17.50;72.50
17495;DHT22;8864;51.970;4.614;2022-11-13T11:59:27;17.50;72.50
17495;DHT22;8864;51.970;4.614;2022-11-13T12:02:32;17.50;72.50
17495;DHT22;8864;51.970;4.614;2022-11-13T12:05:15;17.50;72.50
17495;DHT22;8864;51.970;4.614;2022-11-13T12:07:52;17.50;72.50
17495;DHT22;8864;51.970;4.614;2022-11-13T12:10:29;17.50;72.60
17495;DHT22;8864;51.970;4.614;2022-11-13T12:13:08;17.50;72.60
17495;DHT22;8864;51.970;4.614;2022-11-13T12:15:43;17.40;72.70
17495;DHT22;8864;51.970;4.614;2022-11-13T12:18:14;17.50;74.20
17495;DHT22;8864;51.970;4.614;2022-11-13T12:20:51;17.50;73.60
17495;DHT22;8864;51.970;4.614;2022-11-13T12:23:33;17.50;73.60
17495;DHT22;8864;51.970;4.614;2022-11-13T12:26:11;17.50;73.70
17495;DHT22;8864;51.970;4.614;2022-11-13T12:28:45;17.50;75.40
17495;DHT22;8864;51.970;4.614;2022-11-13T12:31:23;17.50;76.60
17495;DHT22;8864;51.970;4.614;2022-11-13T12:34:01;17.60;77.70
17495;DHT22;8864;51.970;4.614;2022-11-13T12:36:31;17.70;77.20
17495;DHT22;8864;51.970;4.614;2022-11-13T12:39:03;17.70;77.20
17495;DHT22;8864;51.970;4.614;2022-11-13T12:41:36;17.70;77.40
17495;DHT22;8864;51.970;4.614;2022-11-13T12:44:18;17.80;77.30
17495;DHT22;8864;51.970;4.614;2022-11-13T12:46:46;17.80;77.20
17495;DHT22;8864;51.970;4.614;2022-11-13T12:49:25;17.80;77.10
17495;DHT22;8864;51.970;4.614;2022-11-13T12:51:54;17.80;77.20
17495;DHT22;8864;51.970;4.614;2022-11-13T12:54:25;17.80;77.50
17495;DHT22;8864;51.970;4.614;2022-11-13T12:57:14;17.80;77.30
17495;DHT22;8864;51.970;4.614;2022-11-13T12:59:43;17.80;77.60
17495;DHT22;8864;51.970;4.614;2022-11-13T13:05:20;17.80;77.70
17495;DHT22;8864;51.970;4.614;2022-11-13T13:08:13;17.80;77.60
17495;DHT22;8864;51.970;4.614;2022-11-13T13:10:53;17.90;77.60
17495;DHT22;8864;51.970;4.614;2022-11-13T13:13:29;17.80;77.60
17495;DHT22;8864;51.970;4.614;2022-11-13T13:15:58;17.90;77.60
17495;DHT22;8864;51.970;4.614;2022-11-13T13:18:28;17.80;77.40
17495;DHT22;8864;51.970;4.614;2022-11-13T13:21:02;17.90;77.60
17495;DHT22;8864;51.970;4.614;2022-11-13T13:23:32;17.90;77.60
17495;DHT22;8864;51.970;4.614;2022-11-13T13:26:05;17.90;77.40
17495;DHT22;8864;51.970;4.614;2022-11-13T13:28:42;17.90;77.00
17495;DHT22;8864;51.970;4.614;2022-11-13T13:31:25;17.90;76.50
17495;DHT22;8864;51.970;4.614;2022-11-13T13:34:02;17.90;76.20
17495;DHT22;8864;51.970;4.614;2022-11-13T13:36:36;17.90;75.90
17495;DHT22;8864;51.970;4.614;2022-11-13T13:39:12;17.90;75.60
17495;DHT22;8864;51.970;4.614;2022-11-13T13:41:51;17.90;75.50
17495;DHT22;8864;51.970;4.614;2022-11-13T13:44:51;17.90;75.40
17495;DHT22;8864;51.970;4.614;2022-11-13T13:47:25;17.90;75.30
17495;DHT22;8864;51.970;4.614;2022-11-13T13:49:53;17.90;75.30
17495;DHT22;8864;51.970;4.614;2022-11-13T13:52:24;17.90;75.30
17495;DHT22;8864;51.970;4.614;2022-11-13T13:54:52;17.80;75.10
17495;DHT22;8864;51.970;4.614;2022-11-13T13:57:19;17.80;75.20
17495;DHT22;8864;51.970;4.614;2022-11-13T13:59:50;17.90;75.20
17495;DHT22;8864;51.970;4.614;2022-11-13T14:02:20;17.90;75.70
17495;DHT22;8864;51.970;4.614;2022-11-13T14:04:48;17.90;77.60
17495;DHT22;8864;51.970;4.614;2022-11-13T14:07:23;17.90;77.80
17495;DHT22;8864;51.970;4.614;2022-11-13T14:10:05;17.90;77.10
17495;DHT22;8864;51.970;4.614;2022-11-13T14:12:32;17.90;76.70
17495;DHT22;8864;51.970;4.614;2022-11-13T14:15:03;17.90;76.60
17495;DHT22;8864;51.970;4.614;2022-11-13T14:17:29;17.90;76.50
17495;DHT22;8864;51.970;4.614;2022-11-13T14:19:56;17.90;76.40
17495;DHT22;8864;51.970;4.614;2022-11-13T14:22:25;17.90;76.20
17495;DHT22;8864;51.970;4.614;2022-11-13T14:24:56;17.90;76.20
17495;DHT22;8864;51.970;4.614;2022-11-13T14:27:25;17.90;76.30
17495;DHT22;8864;51.970;4.614;2022-11-13T14:29:55;17.90;76.20
17495;DHT22;8864;51.970;4.614;2022-11-13T14:32:25;17.90;76.10
17495;DHT22;8864;51.970;4.614;2022-11-13T14:34:57;17.90;76.10
17495;DHT22;8864;51.970;4.614;2022-11-13T14:37:27;17.90;76.10
17495;DHT22;8864;51.970;4.614;2022-11-13T14:39:58;17.90;76.50
17495;DHT22;8864;51.970;4.614;2022-11-13T14:42:28;17.90;77.30
17495;DHT22;8864;51.970;4.614;2022-11-13T14:45:15;18.00;77.40
17495;DHT22;8864;51.970;4.614;2022-11-13T14:47:55;17.90;77.10
17495;DHT22;8864;51.970;4.614;2022-11-13T14:50:24;18.00;76.90
17495;DHT22;8864;51.970;4.614;2022-11-13T14:52:56;17.90;76.80
17495;DHT22;8864;51.970;4.614;2022-11-13T14:55:26;17.90;76.60
17495;DHT22;8864;51.970;4.614;2022-11-13T14:57:53;17.90;76.50
17495;DHT22;8864;51.970;4.614;2022-11-13T15:00:27;18.00;76.40
17495;DHT22;8864;51.970;4.614;2022-11-13T15:02:56;17.90;76.50
17495;DHT22;8864;51.970;4.614;2022-11-13T15:05:23;17.90;76.40
17495;DHT22;8864;51.970;4.614;2022-11-13T15:07:50;17.90;76.50
17495;DHT22;8864;51.970;4.614;2022-11-13T15:10:20;17.90;76.60
17495;DHT22;8864;51.970;4.614;2022-11-13T15:12:47;17.90;76.50
17495;DHT22;8864;51.970;4.614;2022-11-13T15:15:16;17.90;76.60
17495;DHT22;8864;51.970;4.614;2022-11-13T15:17:44;17.90;76.50
17495;DHT22;8864;51.970;4.614;2022-11-13T15:20:15;17.90;76.50
17495;DHT22;8864;51.970;4.614;2022-11-13T15:22:42;17.90;77.80
17495;DHT22;8864;51.970;4.614;2022-11-13T15:25:13;17.90;78.30
17495;DHT22;8864;51.970;4.614;2022-11-13T15:27:40;17.90;78.70
17495;DHT22;8864;51.970;4.614;2022-11-13T15:30:07;17.90;78.20
17495;DHT22;8864;51.970;4.614;2022-11-13T15:32:34;17.90;78.00
17495;DHT22;8864;51.970;4.614;2022-11-13T15:35:02;17.90;78.00
17495;DHT22;8864;51.970;4.614;2022-11-13T15:37:49;17.90;77.90
17495;DHT22;8864;51.970;4.614;2022-11-13T15:40:16;17.90;78.00
17495;DHT22;8864;51.970;4.614;2022-11-13T15:42:43;17.80;77.70
17495;DHT22;8864;51.970;4.614;2022-11-13T15:45:13;17.80;77.90
17495;DHT22;8864;51.970;4.614;2022-11-13T15:47:41;17.80;78.80
17495;DHT22;8864;51.970;4.614;2022-11-13T15:50:08;17.80;79.30
17495;DHT22;8864;51.970;4.614;2022-11-13T15:52:38;17.80;79.30
17495;DHT22;8864;51.970;4.614;2022-11-13T15:55:23;17.80;80.40
17495;DHT22;8864;51.970;4.614;2022-11-13T15:57:50;17.80;80.60
17495;DHT22;8864;51.970;4.614;2022-11-13T16:00:21;17.80;80.50
17495;DHT22;8864;51.970;4.614;2022-11-13T16:02:58;17.80;79.80